Time,TemperatureF,DewpointF,PressureIn,WindDirection,WindDirectionDegrees,WindSpeedMPH,WindSpeedGustMPH,Humidity,HourlyPrecipIn,Conditions,Clouds,dailyrainin,SolarRadiationWatts/m^2,SoftwareType,DateUTC
2013-04-01 00:12:00,61.0,38.0,-100.00,WSW,245,17.0,27.0,42,0.00,,,0.00,538.000000,,2013-04-01 00:12:00,
2013-04-01 00:22:00,61.0,38.0,-100.00,WSW,245,17.0,27.0,42,0.00,,,0.00,538.000000,,2013-04-01 00:22:00,
2013-04-01 00:32:00,61.0,38.0,-100.00,WSW,245,17.0,27.0,42,0.00,,,0.00,538.000000,,2013-04-01 00:32:00,
2013-04-01 00:42:00,61.0,38.0,-100.00,WSW,245,17.0,27.0,42,0.00,,,0.00,538.000000,,2013-04-01 00:42:00,
2013-04-01 00:50:00,59.0,38.0,-100.00,WSW,247,15.0,24.0,46,0.00,,,0.00,302.000000,,2013-04-01 00:50:00,
2013-04-01 01:12:00,59.0,38.0,-100.00,WSW,247,15.0,24.0,46,0.00,,,0.00,302.000000,,2013-04-01 01:12:00,
2013-04-01 01:22:00,59.0,38.0,-100.00,WSW,247,15.0,24.0,46,0.00,,,0.00,302.000000,,2013-04-01 01:22:00,
2013-04-01 01:32:00,59.0,38.0,-100.00,WSW,247,15.0,24.0,46,0.00,,,0.00,302.000000,,2013-04-01 01:32:00,
2013-04-01 01:42:00,59.0,38.0,-100.00,WSW,247,15.0,24.0,46,0.00,,,0.00,302.000000,,2013-04-01 01:42:00,
2013-04-01 01:50:00,55.0,43.0,-100.00,WSW,249,10.0,25.0,64,0.00,,,0.00,121.000000,,2013-04-01 01:50:00,
2013-04-01 02:12:00,55.0,43.0,-100.00,WSW,249,10.0,25.0,64,0.00,,,0.00,121.000000,,2013-04-01 02:12:00,
2013-04-01 02:22:00,55.0,43.0,-100.00,WSW,249,10.0,25.0,64,0.00,,,0.00,121.000000,,2013-04-01 02:22:00,
2013-04-01 02:32:00,55.0,43.0,-100.00,WSW,249,10.0,25.0,64,0.00,,,0.00,121.000000,,2013-04-01 02:32:00,
2013-04-01 02:42:00,55.0,43.0,-100.00,WSW,249,10.0,25.0,64,0.00,,,0.00,121.000000,,2013-04-01 02:42:00,
2013-04-01 02:50:00,51.0,46.0,-100.00,WSW,247,11.0,18.0,83,0.00,,,0.00,5.000000,,2013-04-01 02:50:00,
2013-04-01 03:22:00,51.0,46.0,-100.00,WSW,247,11.0,18.0,83,0.00,,,0.00,5.000000,,2013-04-01 03:22:00,
2013-04-01 03:33:00,51.0,46.0,-100.00,WSW,247,11.0,18.0,83,0.00,,,0.00,5.000000,,2013-04-01 03:33:00,
2013-04-01 03:43:00,51.0,46.0,-100.00,WSW,247,11.0,18.0,83,0.00,,,0.00,5.000000,,2013-04-01 03:43:00,
2013-04-01 03:50:00,48.0,45.0,-100.00,West,262,13.0,19.0,89,0.00,,,0.00,0.000000,,2013-04-01 03:50:00,
2013-04-01 04:23:00,48.0,45.0,-100.00,West,262,13.0,19.0,89,0.00,,,0.00,0.000000,,2013-04-01 04:23:00,
2013-04-01 04:32:00,48.0,45.0,-100.00,West,262,13.0,19.0,89,0.00,,,0.00,0.000000,,2013-04-01 04:32:00,
2013-04-01 04:43:00,48.0,45.0,-100.00,West,262,13.0,19.0,89,0.00,,,0.00,0.000000,,2013-04-01 04:43:00,
2013-04-01 04:50:00,48.0,45.0,-100.00,WSW,253,9.0,15.0,89,0.00,,,0.00,0.000000,,2013-04-01 04:50:00,
2013-04-01 05:12:00,48.0,45.0,-100.00,WSW,253,9.0,15.0,89,0.00,,,0.00,0.000000,,2013-04-01 05:12:00,
2013-04-01 05:22:00,48.0,45.0,-100.00,WSW,253,9.0,15.0,89,0.00,,,0.00,0.000000,,2013-04-01 05:22:00,
2013-04-01 05:32:00,48.0,45.0,-100.00,WSW,253,9.0,15.0,89,0.00,,,0.00,0.000000,,2013-04-01 05:32:00,
2013-04-01 05:42:00,48.0,45.0,-100.00,WSW,253,9.0,15.0,89,0.00,,,0.00,0.000000,,2013-04-01 05:42:00,
2013-04-01 05:50:00,48.0,45.0,-100.00,WSW,252,11.0,17.0,89,0.00,,,0.00,0.000000,,2013-04-01 05:50:00,
2013-04-01 06:12:00,48.0,45.0,-100.00,WSW,252,11.0,17.0,89,0.00,,,0.00,0.000000,,2013-04-01 06:12:00,
2013-04-01 06:22:00,48.0,45.0,-100.00,WSW,252,11.0,17.0,89,0.00,,,0.00,0.000000,,2013-04-01 06:22:00,
2013-04-01 06:33:00,48.0,45.0,-100.00,WSW,252,11.0,17.0,89,0.00,,,0.00,0.000000,,2013-04-01 06:33:00,
2013-04-01 06:42:00,48.0,45.0,-100.00,WSW,252,11.0,17.0,89,0.00,,,0.00,0.000000,,2013-04-01 06:42:00,
2013-04-01 06:50:00,46.0,43.0,-100.00,WSW,249,9.0,20.0,88,0.00,,,0.00,0.000000,,2013-04-01 06:50:00,
2013-04-01 07:12:00,46.0,43.0,-100.00,WSW,249,9.0,20.0,88,0.00,,,0.00,0.000000,,2013-04-01 07:12:00,
2013-04-01 07:22:00,46.0,43.0,-100.00,WSW,249,9.0,20.0,88,0.00,,,0.00,0.000000,,2013-04-01 07:22:00,
2013-04-01 07:32:00,46.0,43.0,-100.00,WSW,249,9.0,20.0,88,0.00,,,0.00,0.000000,,2013-04-01 07:32:00,
2013-04-01 07:42:00,46.0,43.0,-100.00,WSW,249,9.0,20.0,88,0.00,,,0.00,0.000000,,2013-04-01 07:42:00,
2013-04-01 07:50:00,45.0,43.0,-100.00,WSW,239,12.0,21.0,94,0.00,,,0.00,0.000000,,2013-04-01 07:50:00,
2013-04-01 08:12:00,45.0,43.0,-100.00,WSW,239,12.0,21.0,94,0.00,,,0.00,0.000000,,2013-04-01 08:12:00,
2013-04-01 08:22:00,45.0,43.0,-100.00,WSW,239,12.0,21.0,94,0.00,,,0.00,0.000000,,2013-04-01 08:22:00,
2013-04-01 08:32:00,45.0,43.0,-100.00,WSW,239,12.0,21.0,94,0.00,,,0.00,0.000000,,2013-04-01 08:32:00,
2013-04-01 08:43:00,45.0,43.0,-100.00,WSW,239,12.0,21.0,94,0.00,,,0.00,0.000000,,2013-04-01 08:43:00,
2013-04-01 08:50:00,45.0,44.0,-100.00,WSW,241,11.0,23.0,96,0.00,,,0.00,0.000000,,2013-04-01 08:50:00,
2013-04-01 09:12:00,45.0,44.0,-100.00,WSW,241,11.0,23.0,96,0.00,,,0.00,0.000000,,2013-04-01 09:12:00,
2013-04-01 09:22:00,45.0,44.0,-100.00,WSW,241,11.0,23.0,96,0.00,,,0.00,0.000000,,2013-04-01 09:22:00,
2013-04-01 09:33:00,45.0,44.0,-100.00,WSW,241,11.0,23.0,96,0.00,,,0.00,0.000000,,2013-04-01 09:33:00,
2013-04-01 09:42:00,45.0,44.0,-100.00,WSW,241,11.0,23.0,96,0.00,,,0.00,0.000000,,2013-04-01 09:42:00,
2013-04-01 09:50:00,45.0,43.0,-100.00,WSW,248,12.0,22.0,93,0.00,,,0.00,0.000000,,2013-04-01 09:50:00,
2013-04-01 10:12:00,45.0,43.0,-100.00,WSW,248,12.0,22.0,93,0.00,,,0.00,0.000000,,2013-04-01 10:12:00,
2013-04-01 10:23:00,45.0,43.0,-100.00,WSW,248,12.0,22.0,93,0.00,,,0.00,0.000000,,2013-04-01 10:23:00,
2013-04-01 10:33:00,45.0,43.0,-100.00,WSW,248,12.0,22.0,93,0.00,,,0.00,0.000000,,2013-04-01 10:33:00,
2013-04-01 10:42:00,45.0,43.0,-100.00,WSW,248,12.0,22.0,93,0.00,,,0.00,0.000000,,2013-04-01 10:42:00,
2013-04-01 10:50:00,44.0,42.0,-100.00,SW,235,10.0,23.0,92,0.00,,,0.00,0.000000,,2013-04-01 10:50:00,
2013-04-01 11:12:00,44.0,42.0,-100.00,SW,235,10.0,23.0,92,0.00,,,0.00,0.000000,,2013-04-01 11:12:00,
2013-04-01 11:22:00,44.0,42.0,-100.00,SW,235,10.0,23.0,92,0.00,,,0.00,0.000000,,2013-04-01 11:22:00,
2013-04-01 11:32:00,44.0,42.0,-100.00,SW,235,10.0,23.0,92,0.00,,,0.00,0.000000,,2013-04-01 11:32:00,
2013-04-01 11:42:00,44.0,42.0,-100.00,SW,235,10.0,23.0,92,0.00,,,0.00,0.000000,,2013-04-01 11:42:00,
2013-04-01 11:50:00,43.0,42.0,-100.00,WSW,242,8.0,16.0,95,0.00,,,0.00,0.000000,,2013-04-01 11:50:00,
2013-04-01 12:12:00,43.0,42.0,-100.00,WSW,242,8.0,16.0,95,0.00,,,0.00,0.000000,,2013-04-01 12:12:00,
2013-04-01 12:22:00,43.0,42.0,-100.00,WSW,242,8.0,16.0,95,0.00,,,0.00,0.000000,,2013-04-01 12:22:00,
2013-04-01 12:32:00,43.0,42.0,-100.00,WSW,242,8.0,16.0,95,0.00,,,0.00,0.000000,,2013-04-01 12:32:00,
2013-04-01 12:42:00,43.0,42.0,-100.00,WSW,242,8.0,16.0,95,0.00,,,0.00,0.000000,,2013-04-01 12:42:00,
2013-04-01 12:50:00,42.0,41.0,-100.00,WSW,257,7.0,15.0,96,0.00,,,0.00,0.000000,,2013-04-01 12:50:00,
2013-04-01 13:12:00,42.0,41.0,-100.00,WSW,257,7.0,15.0,96,0.00,,,0.00,0.000000,,2013-04-01 13:12:00,
2013-04-01 13:22:00,42.0,41.0,-100.00,WSW,257,7.0,15.0,96,0.00,,,0.00,0.000000,,2013-04-01 13:22:00,
2013-04-01 13:32:00,42.0,41.0,-100.00,WSW,257,7.0,15.0,96,0.00,,,0.00,0.000000,,2013-04-01 13:32:00,
2013-04-01 13:42:00,42.0,41.0,-100.00,WSW,257,7.0,15.0,96,0.00,,,0.00,0.000000,,2013-04-01 13:42:00,
2013-04-01 13:50:00,44.0,39.0,-100.00,West,263,17.0,25.0,84,0.00,,,-99.99,5.000000,,2013-04-01 13:50:00,
2013-04-01 14:22:00,44.0,39.0,-100.00,West,263,17.0,25.0,84,0.00,,,-99.99,5.000000,,2013-04-01 14:22:00,
2013-04-01 14:32:00,44.0,39.0,-100.00,West,263,17.0,25.0,84,0.00,,,-99.99,5.000000,,2013-04-01 14:32:00,
2013-04-01 14:42:00,44.0,39.0,-100.00,West,263,17.0,25.0,84,0.00,,,-99.99,5.000000,,2013-04-01 14:42:00,
2013-04-01 14:50:00,47.0,39.0,-100.00,WSW,258,19.0,30.0,75,0.00,,,0.00,107.000000,,2013-04-01 14:50:00,
2013-04-01 15:12:00,47.0,39.0,-100.00,WSW,258,19.0,30.0,75,0.00,,,0.00,107.000000,,2013-04-01 15:12:00,
2013-04-01 15:22:00,47.0,39.0,-100.00,WSW,258,19.0,30.0,75,0.00,,,0.00,107.000000,,2013-04-01 15:22:00,
2013-04-01 15:33:00,47.0,39.0,-100.00,WSW,258,19.0,30.0,75,0.00,,,0.00,107.000000,,2013-04-01 15:33:00,
2013-04-01 15:43:00,47.0,39.0,-100.00,WSW,258,19.0,30.0,75,0.00,,,0.00,107.000000,,2013-04-01 15:43:00,
2013-04-01 15:50:00,50.0,42.0,-100.00,West,259,20.0,31.0,73,0.00,,,0.00,327.000000,,2013-04-01 15:50:00,
2013-04-01 16:23:00,50.0,42.0,-100.00,West,259,20.0,31.0,73,0.00,,,0.00,327.000000,,2013-04-01 16:23:00,
2013-04-01 16:33:00,50.0,42.0,-100.00,West,259,20.0,31.0,73,0.00,,,0.00,327.000000,,2013-04-01 16:33:00,
2013-04-01 16:42:00,50.0,42.0,-100.00,West,259,20.0,31.0,73,0.00,,,0.00,327.000000,,2013-04-01 16:42:00,
2013-04-01 17:50:00,59.0,37.0,-100.00,WSW,256,15.0,31.0,44,-99.99,,,0.00,767.000000,,2013-04-01 17:50:00,
2013-04-01 18:12:00,59.0,37.0,-100.00,WSW,256,15.0,31.0,44,-99.99,,,0.00,767.000000,,2013-04-01 18:12:00,
2013-04-01 18:22:00,59.0,37.0,-100.00,WSW,256,15.0,31.0,44,-99.99,,,0.00,767.000000,,2013-04-01 18:22:00,
2013-04-01 18:32:00,59.0,37.0,-100.00,WSW,256,15.0,31.0,44,-99.99,,,0.00,767.000000,,2013-04-01 18:32:00,
2013-04-01 18:42:00,59.0,37.0,-100.00,WSW,256,15.0,31.0,44,-99.99,,,0.00,767.000000,,2013-04-01 18:42:00,
2013-04-01 18:50:00,60.0,38.0,-100.00,WSW,256,11.0,25.0,44,0.00,,,0.00,846.000000,,2013-04-01 18:50:00,
2013-04-01 19:12:00,60.0,38.0,-100.00,WSW,256,11.0,25.0,44,0.00,,,0.00,846.000000,,2013-04-01 19:12:00,
2013-04-01 19:23:00,60.0,38.0,-100.00,WSW,256,11.0,25.0,44,0.00,,,0.00,846.000000,,2013-04-01 19:23:00,
2013-04-01 19:32:00,60.0,38.0,-100.00,WSW,256,11.0,25.0,44,0.00,,,0.00,846.000000,,2013-04-01 19:32:00,
2013-04-01 19:42:00,60.0,38.0,-100.00,WSW,256,11.0,25.0,44,0.00,,,0.00,846.000000,,2013-04-01 19:42:00,
2013-04-01 19:50:00,61.0,39.0,-100.00,WSW,254,15.0,25.0,44,0.00,,,0.00,948.000000,,2013-04-01 19:50:00,
2013-04-01 20:22:00,61.0,39.0,-100.00,WSW,254,15.0,25.0,44,0.00,,,0.00,948.000000,,2013-04-01 20:22:00,
2013-04-01 20:32:00,61.0,39.0,-100.00,WSW,254,15.0,25.0,44,0.00,,,0.00,948.000000,,2013-04-01 20:32:00,
2013-04-01 20:42:00,61.0,39.0,-100.00,WSW,254,15.0,25.0,44,0.00,,,0.00,948.000000,,2013-04-01 20:42:00,
2013-04-01 20:50:00,62.0,40.0,-100.00,WSW,254,15.0,26.0,44,0.00,,,0.00,932.000000,,2013-04-01 20:50:00,
2013-04-01 21:22:00,62.0,40.0,-100.00,WSW,254,15.0,26.0,44,0.00,,,0.00,932.000000,,2013-04-01 21:22:00,
2013-04-01 21:32:00,62.0,40.0,-100.00,WSW,254,15.0,26.0,44,0.00,,,0.00,932.000000,,2013-04-01 21:32:00,
2013-04-01 21:43:00,62.0,40.0,-100.00,WSW,254,15.0,26.0,44,0.00,,,0.00,932.000000,,2013-04-01 21:43:00,
2013-04-01 21:50:00,62.0,39.0,-100.00,West,270,15.0,24.0,43,0.00,,,0.00,909.000000,,2013-04-01 21:50:00,
2013-04-01 22:12:00,62.0,39.0,-100.00,West,270,15.0,24.0,43,0.00,,,0.00,909.000000,,2013-04-01 22:12:00,
2013-04-01 22:22:00,62.0,39.0,-100.00,West,270,15.0,24.0,43,0.00,,,0.00,909.000000,,2013-04-01 22:22:00,
2013-04-01 22:33:00,62.0,39.0,-100.00,West,270,15.0,24.0,43,0.00,,,0.00,909.000000,,2013-04-01 22:33:00,
2013-04-01 22:42:00,62.0,39.0,-100.00,West,270,15.0,24.0,43,0.00,,,0.00,909.000000,,2013-04-01 22:42:00,
2013-04-01 22:50:00,61.0,41.0,-100.00,WSW,256,14.0,23.0,48,0.00,,,0.00,720.000000,,2013-04-01 22:50:00,
2013-04-01 23:22:00,61.0,41.0,-100.00,WSW,256,14.0,23.0,48,0.00,,,0.00,720.000000,,2013-04-01 23:22:00,
2013-04-01 23:32:00,61.0,41.0,-100.00,WSW,256,14.0,23.0,48,0.00,,,0.00,720.000000,,2013-04-01 23:32:00,
2013-04-01 23:42:00,61.0,41.0,-100.00,WSW,256,14.0,23.0,48,0.00,,,0.00,720.000000,,2013-04-01 23:42:00,
2013-04-01 23:50:00,59.0,41.0,-100.00,West,265,12.0,22.0,52,0.00,,,0.00,570.000000,,2013-04-01 23:50:00,